Time;durP1;ratioP1;P1;durP2;ratioP2;P2;SDS_P1;SDS_P2;PMS_P1;PMS_P2;Temp;Humidity;BMP_temperature;BMP_pressure;BME280_temperature;BME280_humidity;BME280_pressure;Samples;Min_cycle;Max_cycle;Signal;HPM_P1;HPM_P2
2023/05/17 00:02:01;;;;;;;;;;;;;;;19.37;45.89;102380.09;5050561;28;20350;-71
2023/05/17 00:04:27;;;;;;;;;;;;;;;19.35;45.85;102371.28;5049789;28;19917;-72
2023/05/17 00:06:52;;;;;;;;;;;;;;;19.34;45.97;102374.97;5053251;28;19943;-72
2023/05/17 00:09:18;;;;;;;;;;;;;;;19.34;46.07;102382.22;5053927;28;19913;-72
2023/05/17 00:11:43;;;;;;;;;;;;;;;19.33;45.77;102384.06;5048601;28;19997;-72
2023/05/17 00:14:08;;;;;;;;;;;;;;;19.32;46.00;102379.63;5058595;28;19931;-71
2023/05/17 00:16:33;;;;;;;;;;;;;;;19.32;45.82;102376.06;5052946;28;19913;-72
2023/05/17 00:18:58;;;;;;;;;;;;;;;19.31;45.79;102377.06;5051670;28;19927;-72
2023/05/17 00:21:23;;;;;;;;;;;;;;;19.30;45.92;102380.78;5055251;28;19945;-71
2023/05/17 00:23:49;;;;;;;;;;;;;;;19.29;45.95;102376.38;5054872;28;19920;-72
2023/05/17 00:26:14;;;;;;;;;;;;;;;19.28;45.71;102378.19;5049278;28;19913;-72
2023/05/17 00:28:39;;;;;;;;;;;;;;;19.28;45.81;102375.50;5048674;28;20465;-72
2023/05/17 00:31:04;;;;;;;;;;;;;;;19.27;45.67;102368.41;5052146;28;19920;-72
2023/05/17 00:33:29;;;;;;;;;;;;;;;19.27;45.71;102372.94;5049688;28;19917;-72
2023/05/17 00:35:54;;;;;;;;;;;;;;;19.26;45.81;102374.78;5051741;28;19917;-72
2023/05/17 00:38:20;;;;;;;;;;;;;;;19.26;45.82;102374.78;5048393;28;19921;-72
2023/05/17 00:40:45;;;;;;;;;;;;;;;19.25;45.95;102378.47;5052794;28;19916;-71
2023/05/17 00:43:10;;;;;;;;;;;;;;;19.24;45.65;102371.34;5053962;28;20408;-72
2023/05/17 00:45:35;;;;;;;;;;;;;;;19.23;45.70;102367.81;5050573;28;19972;-72
2023/05/17 00:48:00;;;;;;;;;;;;;;;19.23;45.62;102366.97;5052469;28;19913;-72
2023/05/17 00:50:25;;;;;;;;;;;;;;;19.22;45.71;102362.56;5051973;28;19913;-72
2023/05/17 00:52:51;;;;;;;;;;;;;;;19.21;45.89;102363.56;5042512;28;19924;-72
2023/05/17 00:55:18;;;;;;;;;;;;;;;19.20;45.84;102362.72;5051177;28;19936;-72
2023/05/17 00:57:43;;;;;;;;;;;;;;;19.20;45.73;102373.50;5020892;28;19975;-72
2023/05/17 01:00:09;;;;;;;;;;;;;;;19.19;45.87;102370.91;5048837;28;19913;-71
2023/05/17 01:02:34;;;;;;;;;;;;;;;19.18;45.79;102371.91;5035191;28;20361;-72
2023/05/17 01:04:59;;;;;;;;;;;;;;;19.17;45.58;102371.06;5049552;28;19917;-72
2023/05/17 01:07:24;;;;;;;;;;;;;;;19.17;45.99;102371.06;5048944;28;19967;-72
2023/05/17 01:09:50;;;;;;;;;;;;;;;19.17;45.87;102375.59;5055731;28;19980;-72
2023/05/17 01:12:30;;;;;;;;;;;;;;;19.16;45.72;102373.91;5048065;28;19913;-72
2023/05/17 01:15:04;;;;;;;;;;;;;;;19.14;45.93;102374.03;5058150;28;19923;-72
2023/05/17 01:17:34;;;;;;;;;;;;;;;19.14;45.80;102374.03;5042839;28;19923;-72
2023/05/17 01:20:00;;;;;;;;;;;;;;;19.14;46.02;102367.78;5031523;28;19984;-73
2023/05/17 01:22:27;;;;;;;;;;;;;;;19.14;45.65;102370.47;5052604;28;19933;-72
2023/05/17 01:25:16;;;;;;;;;;;;;;;19.13;45.70;102372.31;5050185;28;20412;-72
2023/05/17 01:27:42;;;;;;;;;;;;;;;19.13;45.88;102375.00;5051472;28;19966;-72
2023/05/17 01:30:08;;;;;;;;;;;;;;;19.11;45.68;102368.88;5036406;28;19917;-72
2023/05/17 01:32:33;;;;;;;;;;;;;;;19.11;45.66;102370.72;5048994;28;19963;-72
2023/05/17 01:34:58;;;;;;;;;;;;;;;19.11;45.84;102368.03;5020444;28;19917;-73
2023/05/17 01:37:23;;;;;;;;;;;;;;;19.10;45.78;102372.56;5053988;28;19924;-72
2023/05/17 01:39:49;;;;;;;;;;;;;;;19.10;45.63;102366.34;5051868;28;19921;-72
2023/05/17 01:42:20;;;;;;;;;;;;;;;19.09;45.72;102381.66;5046974;28;19956;-72
2023/05/17 01:44:49;;;;;;;;;;;;;;;19.09;45.92;102372.72;5046206;28;20294;-72
2023/05/17 01:47:33;;;;;;;;;;;;;;;19.08;45.85;102384.50;5055457;28;19923;-72
2023/05/17 01:49:58;;;;;;;;;;;;;;;19.09;45.80;102388.91;5054593;28;20390;-72
2023/05/17 01:52:28;;;;;;;;;;;;;;;19.08;45.59;102384.50;5034539;28;19920;-72
2023/05/17 01:54:58;;;;;;;;;;;;;;;19.08;45.97;102392.59;5048929;28;20285;-72
2023/05/17 01:57:24;;;;;;;;;;;;;;;19.07;46.04;102390.84;5037289;28;19917;-72
2023/05/17 01:59:49;;;;;;;;;;;;;;;19.06;45.90;102403.47;5038079;28;19921;-72
2023/05/17 02:02:15;;;;;;;;;;;;;;;19.05;45.77;102400.94;5033525;28;20289;-72
2023/05/17 02:04:40;;;;;;;;;;;;;;;19.05;45.79;102406.31;5039046;28;21157;-72
2023/05/17 02:07:05;;;;;;;;;;;;;;;19.03;45.87;102405.59;5047541;28;19916;-72
2023/05/17 02:09:30;;;;;;;;;;;;;;;19.03;45.87;102408.28;5059483;28;19913;-72
2023/05/17 02:11:55;;;;;;;;;;;;;;;19.03;45.71;102408.28;5053682;28;19917;-72
2023/05/17 02:14:21;;;;;;;;;;;;;;;19.03;45.69;102413.69;5054669;28;19927;-72
2023/05/17 02:16:46;;;;;;;;;;;;;;;19.01;45.64;102408.44;5055839;28;20289;-72
2023/05/17 02:19:12;;;;;;;;;;;;;;;19.01;45.83;102412.97;5052868;28;20313;-72
2023/05/17 02:21:37;;;;;;;;;;;;;;;19.01;45.83;102411.13;5053186;28;19917;-72
2023/05/17 02:24:02;;;;;;;;;;;;;;;19.00;45.70;102412.13;5052944;28;19935;-73
2023/05/17 02:26:28;;;;;;;;;;;;;;;19.00;45.97;102414.81;5051826;28;19917;-72
2023/05/17 02:28:53;;;;;;;;;;;;;;;19.00;45.68;102413.97;5051261;28;19913;-72
2023/05/17 02:31:18;;;;;;;;;;;;;;;18.99;45.64;102423.91;5038622;28;19921;-72
2023/05/17 02:33:43;;;;;;;;;;;;;;;18.99;45.58;102421.19;5033126;28;19924;-72
2023/05/17 02:36:08;;;;;;;;;;;;;;;18.98;45.79;102422.16;5059714;28;19919;-71
2023/05/17 02:38:33;;;;;;;;;;;;;;;18.98;45.76;102427.56;5055945;28;19921;-73
2023/05/17 02:40:59;;;;;;;;;;;;;;;18.96;45.61;102427.69;5051856;28;19917;-72
2023/05/17 02:43:24;;;;;;;;;;;;;;;18.96;45.55;102434.94;5057988;28;19920;-72
2023/05/17 02:45:49;;;;;;;;;;;;;;;18.95;45.84;102430.53;5052446;28;20437;-72
2023/05/17 02:48:14;;;;;;;;;;;;;;;18.94;45.75;102429.66;5051948;28;19968;-72
2023/05/17 02:50:39;;;;;;;;;;;;;;;18.93;45.69;102433.34;5053035;28;20023;-72
2023/05/17 02:53:05;;;;;;;;;;;;;;;18.93;45.66;102430.66;5053128;28;19917;-71
2023/05/17 02:55:30;;;;;;;;;;;;;;;18.92;45.61;102430.78;5051830;28;19917;-72
2023/05/17 02:57:55;;;;;;;;;;;;;;;18.90;45.70;102430.94;5054841;28;19918;-72
2023/05/17 03:00:20;;;;;;;;;;;;;;;18.91;45.55;102426.41;5051157;28;20003;-72
2023/05/17 03:02:45;;;;;;;;;;;;;;;18.90;45.51;102433.63;5055043;28;19920;-72
2023/05/17 03:05:10;;;;;;;;;;;;;;;18.89;45.75;102442.66;5056882;28;19913;-72
2023/05/17 03:07:36;;;;;;;;;;;;;;;18.89;45.74;102442.66;5053455;28;19917;-72
2023/05/17 03:10:01;;;;;;;;;;;;;;;18.88;45.62;102440.97;5057305;28;19920;-71
2023/05/17 03:12:26;;;;;;;;;;;;;;;18.87;45.72;102447.34;5051649;28;20427;-72
2023/05/17 03:14:52;;;;;;;;;;;;;;;18.86;45.67;102442.97;5050727;28;19928;-71
2023/05/17 03:17:17;;;;;;;;;;;;;;;18.85;45.59;102443.91;5054760;28;19917;-72
2023/05/17 03:19:42;;;;;;;;;;;;;;;18.85;45.63;102452.00;5052530;28;19920;-72
2023/05/17 03:22:07;;;;;;;;;;;;;;;18.84;45.58;102449.44;5040046;28;19913;-72
2023/05/17 03:24:32;;;;;;;;;;;;;;;18.84;45.43;102454.84;5050873;28;19912;-72
2023/05/17 03:26:57;;;;;;;;;;;;;;;18.82;45.76;102454.97;5053132;28;19944;-72
2023/05/17 03:29:23;;;;;;;;;;;;;;;18.82;45.58;102460.38;5047290;28;19919;-72
2023/05/17 03:31:48;;;;;;;;;;;;;;;18.81;45.64;102461.34;5057076;28;19924;-71
2023/05/17 03:34:13;;;;;;;;;;;;;;;18.81;45.41;102460.47;5043543;28;19920;-72
2023/05/17 03:36:39;;;;;;;;;;;;;;;18.79;45.53;102468.72;5057453;28;20016;-72
2023/05/17 03:39:04;;;;;;;;;;;;;;;18.80;45.57;102466.88;5036043;28;19921;-72
2023/05/17 03:41:30;;;;;;;;;;;;;;;18.78;45.45;102468.84;5050216;28;20294;-72
2023/05/17 03:43:56;;;;;;;;;;;;;;;18.77;45.69;102469.81;5037167;28;19923;-72
2023/05/17 03:46:21;;;;;;;;;;;;;;;18.76;45.36;102471.66;5046228;28;19917;-72
2023/05/17 03:48:46;;;;;;;;;;;;;;;18.76;45.52;102474.34;5049537;28;19924;-72
2023/05/17 03:51:11;;;;;;;;;;;;;;;18.74;45.41;102473.63;5056321;28;20023;-72
2023/05/17 03:53:40;;;;;;;;;;;;;;;18.74;45.47;102479.03;5036090;28;19925;-72
2023/05/17 03:56:05;;;;;;;;;;;;;;;18.72;45.64;102481.84;5050026;28;20056;-72
2023/05/17 03:58:30;;;;;;;;;;;;;;;18.71;45.48;102477.44;5054863;28;19924;-72
2023/05/17 04:00:55;;;;;;;;;;;;;;;18.72;45.29;102483.66;5051977;28;19913;-73
2023/05/17 04:03:20;;;;;;;;;;;;;;;18.71;45.48;102498.13;5056053;28;19963;-72
2023/05/17 04:05:46;;;;;;;;;;;;;;;18.69;45.40;102486.59;5054170;28;20007;-72
2023/05/17 04:08:11;;;;;;;;;;;;;;;18.68;45.44;102485.72;5050919;28;19920;-72
2023/05/17 04:10:40;;;;;;;;;;;;;;;18.67;45.48;102492.13;5052838;28;19914;-73
2023/05/17 04:13:05;;;;;;;;;;;;;;;18.67;45.55;102505.59;5048987;28;19925;-73
2023/05/17 04:15:31;;;;;;;;;;;;;;;18.67;45.59;102507.44;5049570;28;19920;-72
2023/05/17 04:17:56;;;;;;;;;;;;;;;18.66;45.63;102508.41;5037134;28;20331;-72
2023/05/17 04:20:21;;;;;;;;;;;;;;;18.65;45.24;102504.03;5051295;28;19988;-72
2023/05/17 04:22:46;;;;;;;;;;;;;;;18.64;45.36;102513.06;5049472;28;19913;-74
2023/05/17 04:25:11;;;;;;;;;;;;;;;18.64;45.25;102511.22;5051405;28;19913;-74
2023/05/17 04:27:37;;;;;;;;;;;;;;;18.64;45.50;102510.38;5051996;28;20315;-74
2023/05/17 04:30:03;;;;;;;;;;;;;;;18.63;45.20;102514.91;5052459;28;20039;-73
2023/05/17 04:32:28;;;;;;;;;;;;;;;18.63;45.46;102519.44;5055134;28;19917;-73
2023/05/17 04:34:55;;;;;;;;;;;;;;;18.63;45.38;102520.28;5047850;28;19920;-73
2023/05/17 04:37:20;;;;;;;;;;;;;;;18.64;45.71;102527.38;5054259;28;19995;-73
2023/05/17 04:39:45;;;;;;;;;;;;;;;18.63;45.79;102530.22;5032827;28;19964;-73
2023/05/17 04:42:10;;;;;;;;;;;;;;;18.63;45.95;102530.22;5049705;28;19913;-71
2023/05/17 04:44:36;;;;;;;;;;;;;;;18.64;46.05;102545.38;5050030;28;19952;-73
2023/05/17 04:47:02;;;;;;;;;;;;;;;18.64;46.26;102540.00;5050689;28;19905;-73
2023/05/17 04:49:27;;;;;;;;;;;;;;;18.64;45.97;102546.25;5049089;28;19980;-73
2023/05/17 04:51:53;;;;;;;;;;;;;;;18.64;46.28;102545.38;5033102;28;19913;-72
2023/05/17 04:54:18;;;;;;;;;;;;;;;18.64;46.06;102546.25;5041461;28;20015;-72
2023/05/17 04:56:43;;;;;;;;;;;;;;;18.63;46.36;102549.94;5042486;28;19916;-72
2023/05/17 04:59:08;;;;;;;;;;;;;;;18.64;46.29;102553.47;5060682;28;19924;-72
2023/05/17 05:01:34;;;;;;;;;;;;;;;18.64;46.22;102558.84;5056872;28;19988;-72
2023/05/17 05:03:59;;;;;;;;;;;;;;;18.65;46.44;102560.59;5062026;28;19917;-73
2023/05/17 05:06:24;;;;;;;;;;;;;;;18.65;46.67;102568.69;5058386;28;19912;-74
2023/05/17 05:08:50;;;;;;;;;;;;;;;18.64;46.36;102565.09;5039818;28;19948;-73
2023/05/17 05:11:15;;;;;;;;;;;;;;;18.65;46.30;102568.69;5041108;28;19912;-73
2023/05/17 05:13:41;;;;;;;;;;;;;;;18.63;46.26;102566.09;5056367;28;20420;-71
2023/05/17 05:16:06;;;;;;;;;;;;;;;18.63;46.59;102565.25;5054854;28;19928;-71
2023/05/17 05:18:32;;;;;;;;;;;;;;;18.64;46.34;102575.03;5060526;28;19917;-72
2023/05/17 05:20:58;;;;;;;;;;;;;;;18.64;46.36;102589.34;5057695;28;19919;-72
2023/05/17 05:23:23;;;;;;;;;;;;;;;18.64;46.45;102578.56;5039600;28;19917;-71
2023/05/17 05:25:48;;;;;;;;;;;;;;;18.64;46.70;102588.50;5058126;28;19917;-71
2023/05/17 05:28:13;;;;;;;;;;;;;;;18.64;46.45;102591.19;5056642;28;19921;-71
2023/05/17 05:30:38;;;;;;;;;;;;;;;18.64;46.38;102592.03;5042146;28;19913;-71
2023/05/17 05:33:04;;;;;;;;;;;;;;;18.64;46.73;102594.75;5058615;28;19913;-72
2023/05/17 05:35:29;;;;;;;;;;;;;;;18.65;46.57;102601.84;5059197;28;19913;-72
2023/05/17 05:37:57;;;;;;;;;;;;;;;18.64;46.55;102602.81;5060748;28;19923;-71
2023/05/17 05:40:23;;;;;;;;;;;;;;;18.66;46.69;102610.78;5051248;28;19949;-71
2023/05/17 05:42:48;;;;;;;;;;;;;;;18.65;46.69;102611.78;5049968;28;19920;-71
2023/05/17 05:45:13;;;;;;;;;;;;;;;18.65;46.68;102612.63;5056022;28;19924;-71
2023/05/17 05:47:38;;;;;;;;;;;;;;;18.66;46.57;102616.19;5055036;28;19913;-70
2023/05/17 05:50:04;;;;;;;;;;;;;;;18.66;46.69;102621.56;5049304;28;19921;-71
2023/05/17 05:52:30;;;;;;;;;;;;;;;18.65;46.60;102618.03;5051866;28;19917;-71
2023/05/17 05:54:55;;;;;;;;;;;;;;;18.65;46.79;102618.03;5052944;28;20513;-72
2023/05/17 05:57:20;;;;;;;;;;;;;;;18.66;46.67;102635.91;5050274;28;19979;-71
2023/05/17 05:59:45;;;;;;;;;;;;;;;18.67;46.62;102623.28;5057185;28;19916;-72
2023/05/17 06:02:10;;;;;;;;;;;;;;;18.66;46.63;102633.19;5050989;28;19936;-73
2023/05/17 06:04:37;;;;;;;;;;;;;;;18.65;46.80;102631.50;5049106;28;19929;-72
2023/05/17 06:07:02;;;;;;;;;;;;;;;18.66;46.57;102637.75;5051516;28;19921;-74
2023/05/17 06:09:27;;;;;;;;;;;;;;;18.67;46.69;102636.75;5049994;28;19917;-72
2023/05/17 06:11:52;;;;;;;;;;;;;;;18.66;46.68;102637.75;5047870;28;19913;-72
2023/05/17 06:14:18;;;;;;;;;;;;;;;18.66;46.54;102645.81;5049413;28;19920;-73
2023/05/17 06:16:43;;;;;;;;;;;;;;;18.66;46.59;102643.97;5048538;28;19919;-73
2023/05/17 06:19:08;;;;;;;;;;;;;;;18.66;46.57;102645.81;5041699;28;19917;-73
2023/05/17 06:21:33;;;;;;;;;;;;;;;18.67;46.60;102655.59;5037813;28;19913;-71
2023/05/17 06:23:59;;;;;;;;;;;;;;;18.65;46.58;102653.03;5046777;28;19924;-71
2023/05/17 06:26:24;;;;;;;;;;;;;;;18.65;46.33;102653.03;5047086;28;20448;-70
2023/05/17 06:28:50;;;;;;;;;;;;;;;18.64;46.21;102658.53;5051537;28;19927;-70
2023/05/17 06:31:15;;;;;;;;;;;;;;;18.64;46.30;102667.47;5055715;28;19924;-72
2023/05/17 06:33:40;;;;;;;;;;;;;;;18.63;46.13;102662.22;5057880;28;19959;-72
2023/05/17 06:36:05;;;;;;;;;;;;;;;18.63;46.24;102656.84;5051724;28;19917;-75
2023/05/17 06:38:31;;;;;;;;;;;;;;;18.64;46.31;102658.53;5052055;28;20697;-75
2023/05/17 06:40:57;;;;;;;;;;;;;;;18.64;46.19;102666.63;5049933;28;19952;-70
2023/05/17 06:43:22;;;;;;;;;;;;;;;18.64;46.23;102666.63;5054561;28;19956;-70
2023/05/17 06:45:47;;;;;;;;;;;;;;;18.64;46.12;102663.94;5050349;28;19917;-70
2023/05/17 06:48:13;;;;;;;;;;;;;;;18.64;46.26;102669.31;5054919;28;19913;-70
2023/05/17 06:50:38;;;;;;;;;;;;;;;18.64;46.12;102674.69;5052517;28;19967;-70
2023/05/17 06:53:03;;;;;;;;;;;;;;;18.63;46.13;102678.38;5057319;28;19917;-70
2023/05/17 06:55:28;;;;;;;;;;;;;;;18.63;46.03;102681.94;5036097;28;20476;-70
2023/05/17 06:57:54;;;;;;;;;;;;;;;18.63;45.87;102687.31;5051824;28;19917;-69
2023/05/17 07:00:20;;;;;;;;;;;;;;;18.63;46.16;102681.09;5054775;28;19953;-70
2023/05/17 07:02:45;;;;;;;;;;;;;;;18.63;45.95;102687.31;5053710;28;20063;-69
2023/05/17 07:05:10;;;;;;;;;;;;;;;18.09;46.08;102598.34;5054962;28;20403;-70
2023/05/17 07:07:35;;;;;;;;;;;;;;;18.63;45.99;102690.00;5052576;28;19945;-70
2023/05/17 07:10:00;;;;;;;;;;;;;;;18.64;45.85;102698.94;5053317;28;19917;-70
2023/05/17 07:12:26;;;;;;;;;;;;;;;18.64;46.04;102701.66;5051057;28;19936;-70
2023/05/17 07:14:51;;;;;;;;;;;;;;;18.64;45.80;102709.72;5052011;28;19917;-70
2023/05/17 07:17:16;;;;;;;;;;;;;;;18.63;45.93;102706.19;5052711;28;19920;-70
2023/05/17 07:19:41;;;;;;;;;;;;;;;18.64;45.72;102713.28;5043193;28;20567;-70
2023/05/17 07:22:06;;;;;;;;;;;;;;;18.63;45.91;102714.25;5058232;28;19919;-70
2023/05/17 07:24:32;;;;;;;;;;;;;;;18.64;45.84;102702.50;5050148;28;19917;-70
2023/05/17 07:26:57;;;;;;;;;;;;;;;18.64;45.97;102701.66;5058045;28;19913;-70
2023/05/17 07:29:23;;;;;;;;;;;;;;;18.65;45.84;102716.84;5052212;28;19917;-70
2023/05/17 07:31:48;;;;;;;;;;;;;;;18.65;45.77;102719.56;5053395;28;19920;-70
2023/05/17 07:34:13;;;;;;;;;;;;;;;18.65;45.65;102720.41;5053567;28;19917;-70
2023/05/17 07:36:38;;;;;;;;;;;;;;;18.66;45.50;102722.09;5050815;28;20008;-70
2023/05/17 07:39:04;;;;;;;;;;;;;;;18.66;45.70;102727.50;5048029;28;19921;-70
2023/05/17 07:41:30;;;;;;;;;;;;;;;18.67;45.72;102728.34;5051174;28;19920;-70
2023/05/17 07:43:55;;;;;;;;;;;;;;;18.69;45.68;102729.06;5053925;28;19920;-69
2023/05/17 07:46:20;;;;;;;;;;;;;;;18.68;45.53;102728.22;5050498;28;19921;-70
2023/05/17 07:48:46;;;;;;;;;;;;;;;18.69;45.50;102738.06;5056616;28;19917;-70
2023/05/17 07:51:11;;;;;;;;;;;;;;;18.70;45.62;102738.94;5053143;28;19920;-70
2023/05/17 07:53:36;;;;;;;;;;;;;;;18.72;45.67;102736.94;5053944;28;19912;-70
2023/05/17 07:56:01;;;;;;;;;;;;;;;18.73;45.40;102741.34;5054142;28;19985;-70
2023/05/17 07:58:26;;;;;;;;;;;;;;;18.73;45.41;102744.94;5050709;28;19918;-70
2023/05/17 08:00:51;;;;;;;;;;;;;;;18.74;45.42;102729.63;5052612;28;19913;-70
2023/05/17 08:03:17;;;;;;;;;;;;;;;18.76;45.18;102738.41;5051578;28;19952;-69
2023/05/17 08:05:42;;;;;;;;;;;;;;;18.76;45.21;102743.81;5049316;28;20000;-69
2023/05/17 08:08:07;;;;;;;;;;;;;;;18.76;45.23;102746.50;5050492;28;19920;-70
2023/05/17 08:10:33;;;;;;;;;;;;;;;18.78;45.25;102743.72;5053058;28;19917;-70
2023/05/17 08:12:58;;;;;;;;;;;;;;;18.78;45.13;102747.25;5049328;28;19921;-70
2023/05/17 08:15:25;;;;;;;;;;;;;;;18.79;45.12;102740.88;5054394;28;20347;-70
2023/05/17 08:17:50;;;;;;;;;;;;;;;18.79;45.08;102748.97;5053391;28;19927;-69
2023/05/17 08:20:15;;;;;;;;;;;;;;;18.80;45.24;102752.50;5052919;28;19913;-69
2023/05/17 08:22:40;;;;;;;;;;;;;;;18.80;45.16;102758.75;5055003;28;19916;-70
2023/05/17 08:25:06;;;;;;;;;;;;;;;18.81;45.21;102762.31;5048875;28;19940;-70
2023/05/17 08:27:31;;;;;;;;;;;;;;;18.81;45.23;102759.59;5034568;28;19917;-70
2023/05/17 08:29:57;;;;;;;;;;;;;;;18.81;45.17;102757.75;5049139;28;19921;-70
2023/05/17 08:32:22;;;;;;;;;;;;;;;18.83;45.13;102752.28;5052135;28;19948;-69
2023/05/17 08:34:47;;;;;;;;;;;;;;;18.83;44.93;102758.50;5052103;28;19919;-69
2023/05/17 08:37:13;;;;;;;;;;;;;;;18.85;45.00;102761.06;5050567;28;20468;-69
2023/05/17 08:39:38;;;;;;;;;;;;;;;18.85;45.10;102756.53;5048780;28;19913;-69
2023/05/17 08:42:06;;;;;;;;;;;;;;;18.85;44.82;102753.00;5041105;28;19921;-69
2023/05/17 08:44:32;;;;;;;;;;;;;;;18.85;44.82;102761.94;5051943;28;19917;-69
2023/05/17 08:46:57;;;;;;;;;;;;;;;18.87;45.01;102767.22;5047943;28;19976;-71
2023/05/17 08:49:24;;;;;;;;;;;;;;;18.86;44.96;102766.38;5040816;28;20381;-69
2023/05/17 08:51:50;;;;;;;;;;;;;;;18.88;44.76;102760.84;5031379;28;19981;-69
2023/05/17 08:54:15;;;;;;;;;;;;;;;18.88;44.98;102759.00;5033915;28;19913;-69
2023/05/17 08:56:41;;;;;;;;;;;;;;;18.90;45.03;102757.06;5051589;28;19959;-69
2023/05/17 08:59:07;;;;;;;;;;;;;;;18.90;45.00;102756.16;5049191;28;19923;-70
2023/05/17 09:01:32;;;;;;;;;;;;;;;18.90;44.96;102764.25;5050599;28;19924;-69
2023/05/17 09:03:57;;;;;;;;;;;;;;;18.91;44.73;102772.22;5037956;28;19916;-69
2023/05/17 09:06:23;;;;;;;;;;;;;;;18.91;44.98;102766.84;5029951;28;19913;-69
2023/05/17 09:08:51;;;;;;;;;;;;;;;18.91;45.09;102779.47;5048848;28;19920;-69
2023/05/17 09:11:26;;;;;;;;;;;;;;;18.92;44.89;102776.63;5052932;28;19913;-70
2023/05/17 09:13:51;;;;;;;;;;;;;;;18.93;44.97;102775.66;5048093;28;19925;-69
2023/05/17 09:16:19;;;;;;;;;;;;;;;18.94;45.08;102763.88;5055638;28;19947;-69
2023/05/17 09:18:46;;;;;;;;;;;;;;;18.96;45.21;102769.16;5033404;28;19949;-69
2023/05/17 09:21:11;;;;;;;;;;;;;;;18.96;45.22;102775.41;5034943;28;19924;-71
2023/05/17 09:23:37;;;;;;;;;;;;;;;18.97;45.34;102779.81;5035186;28;19948;-73
2023/05/17 09:26:06;;;;;;;;;;;;;;;18.98;45.33;102775.28;5048925;28;20308;-73
2023/05/17 09:28:39;;;;;;;;;;;;;;;19.00;45.30;102783.25;5052269;28;20388;-73
2023/05/17 09:31:05;;;;;;;;;;;;;;;18.99;45.23;102771.63;5050323;28;19959;-72
2023/05/17 09:33:30;;;;;;;;;;;;;;;19.01;45.49;102782.28;5051008;28;19917;-72
2023/05/17 09:35:55;;;;;;;;;;;;;;;19.02;45.62;102768.66;5047961;28;20047;-71
2023/05/17 09:38:24;;;;;;;;;;;;;;;19.02;45.39;102770.50;5053453;28;19921;-72
2023/05/17 09:40:49;;;;;;;;;;;;;;;19.04;45.48;102771.25;5049010;28;19913;-71
2023/05/17 09:43:14;;;;;;;;;;;;;;;19.04;45.53;102777.50;5053524;28;19913;-70
2023/05/17 09:45:40;;;;;;;;;;;;;;;19.05;45.27;102778.34;5034290;28;19919;-72
2023/05/17 09:48:12;;;;;;;;;;;;;;;19.06;45.33;102782.75;5049345;28;19913;-72
2023/05/17 09:50:41;;;;;;;;;;;;;;;19.06;45.56;102782.75;5054906;28;19920;-71
2023/05/17 09:53:15;;;;;;;;;;;;;;;19.06;45.35;102788.13;5049041;28;19967;-70
2023/05/17 09:55:41;;;;;;;;;;;;;;;19.06;45.56;102788.13;5031231;28;19920;-71
2023/05/17 09:58:06;;;;;;;;;;;;;;;19.07;45.67;102797.94;5018323;28;19917;-70
2023/05/17 10:00:31;;;;;;;;;;;;;;;19.08;45.80;102788.88;5050609;28;19917;-71
2023/05/17 10:02:56;;;;;;;;;;;;;;;19.07;45.64;102784.47;5049451;28;20254;-71
2023/05/17 10:05:22;;;;;;;;;;;;;;;19.08;45.66;102791.59;5036026;28;19920;-73
2023/05/17 10:07:47;;;;;;;;;;;;;;;19.09;46.13;102793.28;5045964;28;19924;-71
2023/05/17 10:10:13;;;;;;;;;;;;;;;19.09;45.91;102783.38;5047642;28;19913;-72
2023/05/17 10:12:38;;;;;;;;;;;;;;;19.11;46.04;102786.78;5056095;28;19921;-70
2023/05/17 10:15:04;;;;;;;;;;;;;;;19.11;45.83;102781.38;5045161;28;19983;-69
2023/05/17 10:17:29;;;;;;;;;;;;;;;19.13;45.96;102789.38;5060019;28;19916;-69
2023/05/17 10:19:54;;;;;;;;;;;;;;;19.14;45.76;102789.22;5033036;28;19959;-69
2023/05/17 10:22:20;;;;;;;;;;;;;;;19.15;45.96;102777.47;5037404;28;19917;-69
2023/05/17 10:24:45;;;;;;;;;;;;;;;19.17;45.77;102780.91;5052970;28;19967;-69
2023/05/17 10:27:11;;;;;;;;;;;;;;;19.19;45.96;102781.63;5047987;28;19923;-69
2023/05/17 10:29:37;;;;;;;;;;;;;;;19.21;45.78;102795.00;5033997;28;19924;-69
2023/05/17 10:32:04;;;;;;;;;;;;;;;19.22;45.87;102781.38;5040662;28;19917;-68
2023/05/17 10:34:29;;;;;;;;;;;;;;;19.23;45.90;102782.22;5051917;28;19941;-68
2023/05/17 10:36:55;;;;;;;;;;;;;;;19.24;45.89;102781.25;5038043;28;19939;-68
2023/05/17 10:39:20;;;;;;;;;;;;;;;19.23;45.97;102793.88;5057165;28;20027;-68
2023/05/17 10:41:46;;;;;;;;;;;;;;;19.23;45.59;102793.03;5049076;28;19913;-68
2023/05/17 10:44:12;;;;;;;;;;;;;;;19.22;45.24;102794.00;5048245;28;19913;-68
2023/05/17 10:46:38;;;;;;;;;;;;;;;19.23;45.23;102788.47;5052187;28;19959;-68
2023/05/17 10:49:03;;;;;;;;;;;;;;;19.24;45.51;102794.72;5047400;28;19917;-68
2023/05/17 10:51:32;;;;;;;;;;;;;;;19.26;45.50;102792.78;5054277;28;19948;-68
2023/05/17 10:54:07;;;;;;;;;;;;;;;19.27;45.68;102782.84;5051621;28;19913;-68
2023/05/17 10:56:32;;;;;;;;;;;;;;;19.29;45.42;102781.75;5052043;28;19924;-68
2023/05/17 10:59:16;;;;;;;;;;;;;;;19.32;45.72;102792.25;5051612;28;19917;-68
2023/05/17 11:02:08;;;;;;;;;;;;;;;19.33;45.52;102788.59;5053933;28;20027;-67
2023/05/17 11:04:33;;;;;;;;;;;;;;;19.36;45.46;102784.78;5047791;28;20055;-68
2023/05/17 11:07:26;;;;;;;;;;;;;;;19.38;45.40;102782.84;5054841;28;19913;-68
2023/05/17 11:09:53;;;;;;;;;;;;;;;19.40;45.52;102786.25;5052599;28;20419;-68
2023/05/17 11:12:37;;;;;;;;;;;;;;;19.41;45.42;102779.84;5057801;28;19928;-68
2023/05/17 11:15:06;;;;;;;;;;;;;;;19.42;45.39;102784.28;5050447;28;20384;-68
2023/05/17 11:17:34;;;;;;;;;;;;;;;19.42;45.62;102789.69;5053992;28;19982;-68
2023/05/17 11:20:00;;;;;;;;;;;;;;;19.43;45.37;102778.75;5049800;28;19917;-68
2023/05/17 11:22:26;;;;;;;;;;;;;;;19.44;45.35;102774.22;5053428;28;19920;-68
2023/05/17 11:24:55;;;;;;;;;;;;;;;19.45;45.25;102768.72;5055282;28;20297;-68
2023/05/17 11:27:25;;;;;;;;;;;;;;;19.47;45.52;102773.97;5052515;28;19949;-68
2023/05/17 11:29:51;;;;;;;;;;;;;;;19.48;45.73;102778.38;5057410;28;20027;-68
2023/05/17 11:32:16;;;;;;;;;;;;;;;19.49;45.76;102772.84;5053898;28;20370;-68
2023/05/17 11:34:41;;;;;;;;;;;;;;;19.51;45.70;102769.19;5051673;28;19917;-68
2023/05/17 11:37:10;;;;;;;;;;;;;;;19.51;45.55;102775.44;5050351;28;19917;-73
2023/05/17 11:39:35;;;;;;;;;;;;;;;19.33;38.67;102771.56;5039437;28;19924;-69
2023/05/17 11:42:01;;;;;;;;;;;;;;;19.19;37.54;102772.69;5049252;28;19917;-69
2023/05/17 11:44:30;;;;;;;;;;;;;;;19.08;37.65;102778.97;5057371;28;19913;-68
2023/05/17 11:47:05;;;;;;;;;;;;;;;19.13;39.00;102786.69;5050905;28;19924;-68
2023/05/17 11:49:31;;;;;;;;;;;;;;;19.19;40.64;102775.38;5052322;28;19913;-68
2023/05/17 11:51:57;;;;;;;;;;;;;;;19.25;42.01;102766.81;5053103;28;19952;-68
2023/05/17 11:54:23;;;;;;;;;;;;;;;19.30;42.87;102769.13;5050512;28;19952;-69
2023/05/17 11:56:48;;;;;;;;;;;;;;;19.35;43.46;102767.75;5039535;28;19967;-69
2023/05/17 11:59:18;;;;;;;;;;;;;;;19.41;43.93;102769.06;5050207;28;20340;-69
2023/05/17 12:01:44;;;;;;;;;;;;;;;19.46;44.21;102769.56;5054717;28;19923;-69
2023/05/17 12:04:09;;;;;;;;;;;;;;;19.49;44.28;102766.59;5043407;28;19917;-68
2023/05/17 12:06:35;;;;;;;;;;;;;;;19.52;44.30;102768.19;5059067;28;19913;-69
2023/05/17 12:09:01;;;;;;;;;;;;;;;19.54;44.32;102768.91;5049875;28;19921;-69
2023/05/17 12:11:27;;;;;;;;;;;;;;;19.56;44.48;102766.97;5055704;28;19913;-68
2023/05/17 12:13:52;;;;;;;;;;;;;;;19.60;44.64;102768.41;5052502;28;19931;-68
2023/05/17 12:16:20;;;;;;;;;;;;;;;19.60;44.70;102765.72;5045937;28;19917;-68
2023/05/17 12:18:49;;;;;;;;;;;;;;;19.62;44.81;102761.91;5035838;28;19928;-68
2023/05/17 12:21:17;;;;;;;;;;;;;;;19.64;44.89;102765.38;5048321;28;20211;-68
2023/05/17 12:23:43;;;;;;;;;;;;;;;19.67;45.09;102759.72;5049980;28;19917;-68
2023/05/17 12:26:08;;;;;;;;;;;;;;;19.68;44.76;102758.72;5047469;28;19954;-68
2023/05/17 12:28:34;;;;;;;;;;;;;;;19.70;45.23;102756.75;5053992;28;19924;-68
2023/05/17 12:31:01;;;;;;;;;;;;;;;19.73;45.14;102758.34;5048280;28;19987;-68